首页
METAR-TAF:

METAR-TAF

机场 :

Elkins-Randolph County Airport (Jennings Randolph Field)

Elkins, 西維吉尼亞州, 美国

纬度: 38-53-07N, 经度: 079-51-10W, 海拔: 605米

当前天气观测

该预报发布于1小时和2分钟前的15:51 UTC
静风
温度 6°C
湿度 87%
气压 1021 hPa
能見度: 16.1公里
阴天层高于5000英尺
小雨

METAR: KEKN 131551Z AUTO 00000KT 10SM -RA OVC050 06/04 A3014 RMK AO2 SLP225 P0000 T00560039

时间: 11:53 (16:53 UTC)

预报

该预报发布于1小时和48分钟前的15:05 UTC
预报有效从13日的 15点(UTC)到 14日的 12点(UTC)
风速4节,风向南转南东
能見度: 6.4公里
阴天层高于4000英尺
小雨
从 13日的 1600点(UTC)
风速5节,风向南转南东
能見度: 9.7公里
阴天层高于4000英尺
轻雾
从 13日的 2300点(UTC)
风速4节,风向南转南东
能見度: 9.7公里
阴天层高于2400英尺
小雨
从 14日的 0500点(UTC)
风速节,风向
能見度: 4.8公里
阴天层高于1700英尺
从 14日的 1000点(UTC)
风速节,风向
能見度: 3.2公里
阴天层高于900英尺
小雨

TAF: KEKN 131505Z 1315/1412 16004KT 4SM -RA OVC040 FM131600 16005KT 6SM BR OVC040 FM132300 16004KT 6SM -RA OVC024 FM140500 00000KT 3SM RA OVC017 FM141000 00000KT 2SM -RA OVC009

超过4000个机场的气象观测和天气预报(METAR&TAF报告)。

可查询的气象台以黄色和红色小点在地图上表示。

将鼠标移到小点上方,可查看气象台名称。

然后点击查看天气观测和预报。

如需切换地图:点击带黑十字的绿色按钮放大地图;点击带横线的绿色按钮缩小地图;或者点击绿色箭头查看邻近地区的地图。


METAR-TAF: